Rockville Centre, New York
Current Conditions -  °F | °C
As of 12:51 AM on Thursday 23 Oct 2014 (Local Time) from KJFK Reporting Station
Overcast Overcast  
Wind Chill: 53°   Ceiling: 2000
Heat Index: 53°   Visibility: 10mi
Dew Point: 47°   Wind: 22mph
Humidity: 80%   Direction: 10°N
Pressure: 29.7"   Gusts: 32mph
Location:  40.66°N, 73.64°W
Report Text: KJFK 230451Z 01019G28KT 10SM OVC020 12/08 A2970 RMK AO2 PK WND 36030/0354 SLP058 T01170083 401440111
Loading
Personal Weather Stations






























Interactive Weather Map
Tropical Storm Tracking
New forecast layout! Learn more

10-Day Weather Forecast

Advertisements
Track Severe Weather on mobile